SAS898 ENBR-ESSA
Flight info
| Callsign | SAS898 |
|---|---|
| Flight time | 1h 4m |
| Altitude | 35000 |
| Route | GOKAB DCT MASEV DCT ELTOK |
| Aircraft | CRJ9/M-SDFGIRWXYE3J1/EB1 |
Departure
| Time | 2026-05-01 10:23 |
|---|---|
| Airport | Bergen Airport, Flesland (ENBR) |
Arrival
| Time | 2026-05-01 11:28 |
|---|---|
| Airport | Stockholm-Arlanda Airport (ESSA) |
| Time | Latitude | Longitude | Altitude | Speed | Heading |
|---|---|---|---|---|---|
| 2026-05-01 10:00 | 60.28893 | 5.22538 | 171 ft | 0 kts | 83° |
| 2026-05-01 10:15 | 60.28892 | 5.22533 | 171 ft | 2 kts | 83° |
| 2026-05-01 10:16 | 60.28889 | 5.22481 | 168 ft | 4 kts | 83° |
| 2026-05-01 10:16 | 60.28886 | 5.22428 | 166 ft | 3 kts | 83° |
| 2026-05-01 10:16 | 60.28885 | 5.22422 | 166 ft | 0 kts | 83° |
| 2026-05-01 10:18 | 60.28885 | 5.22424 | 166 ft | 1 kts | 82° |
| 2026-05-01 10:19 | 60.28889 | 5.22433 | 166 ft | 2 kts | 29° |
| 2026-05-01 10:19 | 60.28924 | 5.22394 | 164 ft | 13 kts | 297° |
| 2026-05-01 10:19 | 60.28975 | 5.22259 | 160 ft | 14 kts | 349° |
| 2026-05-01 10:20 | 60.29183 | 5.22191 | 161 ft | 16 kts | 351° |
| 2026-05-01 10:20 | 60.29301 | 5.22151 | 160 ft | 19 kts | 350° |
| 2026-05-01 10:20 | 60.29442 | 5.22104 | 156 ft | 23 kts | 351° |
| 2026-05-01 10:20 | 60.29615 | 5.22046 | 147 ft | 28 kts | 351° |
| 2026-05-01 10:21 | 60.29808 | 5.21982 | 147 ft | 28 kts | 351° |
| 2026-05-01 10:21 | 60.30168 | 5.21860 | 162 ft | 24 kts | 351° |
| 2026-05-01 10:21 | 60.30334 | 5.21806 | 168 ft | 23 kts | 351° |
| 2026-05-01 10:22 | 60.30431 | 5.21575 | 170 ft | 14 kts | 249° |
| 2026-05-01 10:22 | 60.30039 | 5.21581 | 160 ft | 78 kts | 171° |
| 2026-05-01 10:23 | 60.29297 | 5.21827 | 156 ft | 133 kts | 168° |
| 2026-05-01 10:23 | 60.27427 | 5.22507 | 1424 ft | 136 kts | 169° |
| 2026-05-01 10:23 | 60.26505 | 5.22855 | 2157 ft | 138 kts | 173° |
| 2026-05-01 10:24 | 60.24224 | 5.23556 | 2743 ft | 197 kts | 173° |
| 2026-05-01 10:24 | 60.21264 | 5.24524 | 3998 ft | 231 kts | 173° |
| 2026-05-01 10:25 | 60.18026 | 5.25792 | 5596 ft | 244 kts | 172° |
| 2026-05-01 10:25 | 60.14691 | 5.27564 | 7092 ft | 254 kts | 172° |
| 2026-05-01 10:26 | 60.12977 | 5.28520 | 7858 ft | 257 kts | 171° |
| 2026-05-01 10:26 | 60.11296 | 5.29884 | 8604 ft | 268 kts | 156° |
| 2026-05-01 10:26 | 60.09569 | 5.36951 | 9846 ft | 320 kts | 91° |
| 2026-05-01 10:27 | 60.10986 | 5.45898 | 10465 ft | 360 kts | 63° |
| 2026-05-01 10:27 | 60.13626 | 5.54916 | 11199 ft | 383 kts | 58° |
| 2026-05-01 10:28 | 60.15082 | 5.59418 | 11767 ft | 387 kts | 56° |
| 2026-05-01 10:28 | 60.18112 | 5.68367 | 12895 ft | 394 kts | 54° |
| 2026-05-01 10:28 | 60.19684 | 5.72909 | 13455 ft | 396 kts | 53° |
| 2026-05-01 10:29 | 60.22849 | 5.82101 | 14466 ft | 402 kts | 56° |
| 2026-05-01 10:29 | 60.24422 | 5.86771 | 14905 ft | 404 kts | 55° |
| 2026-05-01 10:30 | 60.27587 | 5.96216 | 15785 ft | 409 kts | 55° |
| 2026-05-01 10:30 | 60.30786 | 6.05810 | 16617 ft | 413 kts | 55° |
| 2026-05-01 10:31 | 60.34003 | 6.15492 | 17466 ft | 417 kts | 54° |
| 2026-05-01 10:31 | 60.37260 | 6.25301 | 18187 ft | 422 kts | 55° |
| 2026-05-01 10:32 | 60.40526 | 6.35211 | 18860 ft | 425 kts | 55° |
| 2026-05-01 10:32 | 60.42168 | 6.40216 | 19158 ft | 428 kts | 56° |
| 2026-05-01 10:32 | 60.43754 | 6.51529 | 19681 ft | 426 kts | 97° |
| 2026-05-01 10:33 | 60.42972 | 6.63424 | 20223 ft | 428 kts | 100° |
| 2026-05-01 10:33 | 60.42621 | 6.75532 | 20766 ft | 433 kts | 94° |
| 2026-05-01 10:34 | 60.42552 | 6.81631 | 21056 ft | 435 kts | 94° |
| 2026-05-01 10:34 | 60.42469 | 6.87755 | 21314 ft | 436 kts | 95° |
| 2026-05-01 10:34 | 60.42333 | 6.93898 | 21561 ft | 437 kts | 96° |
| 2026-05-01 10:35 | 60.42048 | 7.06221 | 22051 ft | 440 kts | 96° |
| 2026-05-01 10:35 | 60.41899 | 7.12417 | 22234 ft | 441 kts | 96° |
| 2026-05-01 10:35 | 60.41747 | 7.18631 | 22476 ft | 442 kts | 96° |
| 2026-05-01 10:35 | 60.41595 | 7.24869 | 22697 ft | 443 kts | 96° |
| 2026-05-01 10:36 | 60.41280 | 7.37367 | 23159 ft | 446 kts | 96° |
| 2026-05-01 10:36 | 60.41117 | 7.43555 | 23340 ft | 447 kts | 96° |
| 2026-05-01 10:36 | 60.40953 | 7.49838 | 23575 ft | 447 kts | 96° |
| 2026-05-01 10:37 | 60.40779 | 7.56127 | 23764 ft | 449 kts | 96° |
| 2026-05-01 10:37 | 60.40430 | 7.68756 | 24108 ft | 450 kts | 96° |
| 2026-05-01 10:37 | 60.40252 | 7.75084 | 24266 ft | 451 kts | 96° |
| 2026-05-01 10:38 | 60.40067 | 7.81437 | 24410 ft | 453 kts | 96° |
| 2026-05-01 10:38 | 60.39881 | 7.87799 | 24560 ft | 453 kts | 96° |
| 2026-05-01 10:38 | 60.39691 | 7.94177 | 24715 ft | 454 kts | 96° |
| 2026-05-01 10:38 | 60.39496 | 8.00549 | 24834 ft | 455 kts | 96° |
| 2026-05-01 10:39 | 60.39297 | 8.06952 | 24968 ft | 456 kts | 96° |
| 2026-05-01 10:39 | 60.39097 | 8.13372 | 25073 ft | 457 kts | 96° |
| 2026-05-01 10:39 | 60.38895 | 8.19764 | 25193 ft | 458 kts | 96° |
| 2026-05-01 10:39 | 60.38685 | 8.26200 | 25330 ft | 459 kts | 96° |
| 2026-05-01 10:40 | 60.38475 | 8.32643 | 25447 ft | 460 kts | 96° |
| 2026-05-01 10:40 | 60.38260 | 8.39099 | 25543 ft | 461 kts | 96° |
| 2026-05-01 10:40 | 60.38044 | 8.45556 | 25680 ft | 461 kts | 97° |
| 2026-05-01 10:40 | 60.37822 | 8.52030 | 25784 ft | 462 kts | 96° |
| 2026-05-01 10:41 | 60.37593 | 8.58507 | 25894 ft | 463 kts | 97° |
| 2026-05-01 10:41 | 60.37367 | 8.65006 | 25977 ft | 463 kts | 97° |
| 2026-05-01 10:41 | 60.36897 | 8.78024 | 26174 ft | 465 kts | 97° |
| 2026-05-01 10:42 | 60.36657 | 8.84568 | 26184 ft | 467 kts | 97° |
| 2026-05-01 10:42 | 60.36412 | 8.91127 | 26261 ft | 468 kts | 97° |
| 2026-05-01 10:42 | 60.36163 | 8.97676 | 26367 ft | 468 kts | 97° |
| 2026-05-01 10:42 | 60.35913 | 9.04246 | 26473 ft | 469 kts | 97° |
| 2026-05-01 10:43 | 60.35656 | 9.10816 | 26568 ft | 470 kts | 97° |
| 2026-05-01 10:43 | 60.35400 | 9.17396 | 26661 ft | 470 kts | 97° |
| 2026-05-01 10:43 | 60.35137 | 9.23988 | 26735 ft | 471 kts | 97° |
| 2026-05-01 10:43 | 60.34876 | 9.30490 | 26790 ft | 472 kts | 97° |
| 2026-05-01 10:44 | 60.34610 | 9.37093 | 26902 ft | 472 kts | 97° |
| 2026-05-01 10:44 | 60.34336 | 9.43700 | 26969 ft | 472 kts | 97° |
| 2026-05-01 10:44 | 60.34057 | 9.50295 | 27049 ft | 472 kts | 97° |
| 2026-05-01 10:44 | 60.33784 | 9.56897 | 27127 ft | 472 kts | 97° |
| 2026-05-01 10:45 | 60.33499 | 9.63504 | 27156 ft | 473 kts | 97° |
| 2026-05-01 10:45 | 60.33215 | 9.70098 | 27421 ft | 470 kts | 97° |
| 2026-05-01 10:45 | 60.32934 | 9.76586 | 27948 ft | 458 kts | 97° |
| 2026-05-01 10:45 | 60.32654 | 9.82903 | 28512 ft | 447 kts | 97° |
| 2026-05-01 10:46 | 60.32376 | 9.89094 | 29013 ft | 437 kts | 97° |
| 2026-05-01 10:46 | 60.32105 | 9.95131 | 29455 ft | 430 kts | 97° |
| 2026-05-01 10:46 | 60.31830 | 10.01159 | 29593 ft | 431 kts | 97° |
| 2026-05-01 10:46 | 60.31552 | 10.07177 | 29714 ft | 432 kts | 97° |
| 2026-05-01 10:47 | 60.31366 | 10.11184 | 29777 ft | 432 kts | 97° |
| 2026-05-01 10:47 | 60.30796 | 10.23283 | 30131 ft | 435 kts | 97° |
| 2026-05-01 10:47 | 60.30411 | 10.31375 | 30496 ft | 440 kts | 97° |
| 2026-05-01 10:48 | 60.30212 | 10.35527 | 30697 ft | 441 kts | 97° |
| 2026-05-01 10:48 | 60.29911 | 10.41687 | 31001 ft | 443 kts | 97° |
| 2026-05-01 10:48 | 60.29606 | 10.47882 | 31309 ft | 444 kts | 97° |
| 2026-05-01 10:48 | 60.29297 | 10.54081 | 31629 ft | 445 kts | 97° |
| 2026-05-01 10:49 | 60.28985 | 10.60288 | 31936 ft | 445 kts | 97° |
| 2026-05-01 10:49 | 60.28672 | 10.66418 | 32247 ft | 446 kts | 97° |
| 2026-05-01 10:49 | 60.28355 | 10.72642 | 32568 ft | 446 kts | 98° |
| 2026-05-01 10:49 | 60.28035 | 10.78852 | 32867 ft | 446 kts | 97° |
| 2026-05-01 10:50 | 60.27708 | 10.85057 | 33188 ft | 445 kts | 97° |
| 2026-05-01 10:50 | 60.27388 | 10.91250 | 33513 ft | 445 kts | 97° |
| 2026-05-01 10:50 | 60.27060 | 10.97452 | 33844 ft | 444 kts | 97° |
| 2026-05-01 10:50 | 60.26725 | 11.03608 | 34178 ft | 442 kts | 98° |
| 2026-05-01 10:51 | 60.26382 | 11.09762 | 34475 ft | 441 kts | 98° |
| 2026-05-01 10:51 | 60.26051 | 11.15890 | 34763 ft | 440 kts | 97° |
| 2026-05-01 10:51 | 60.25833 | 11.19939 | 34947 ft | 439 kts | 98° |
| 2026-05-01 10:51 | 60.25381 | 11.28137 | 35118 ft | 442 kts | 98° |
| 2026-05-01 10:52 | 60.25035 | 11.34306 | 35176 ft | 447 kts | 98° |
| 2026-05-01 10:52 | 60.24328 | 11.46897 | 35212 ft | 458 kts | 97° |
| 2026-05-01 10:53 | 60.23600 | 11.59719 | 35222 ft | 461 kts | 97° |
| 2026-05-01 10:53 | 60.22855 | 11.72458 | 35215 ft | 462 kts | 97° |
| 2026-05-01 10:54 | 60.22092 | 11.85281 | 35213 ft | 462 kts | 97° |
| 2026-05-01 10:54 | 60.21313 | 11.98111 | 35216 ft | 463 kts | 98° |
| 2026-05-01 10:55 | 60.20519 | 12.10973 | 35199 ft | 463 kts | 98° |
| 2026-05-01 10:55 | 60.19719 | 12.23832 | 35206 ft | 464 kts | 97° |
| 2026-05-01 10:56 | 60.18903 | 12.36721 | 35197 ft | 465 kts | 98° |
| 2026-05-01 10:56 | 60.18074 | 12.49604 | 35204 ft | 465 kts | 98° |
| 2026-05-01 10:57 | 60.17215 | 12.62492 | 35209 ft | 466 kts | 98° |
| 2026-05-01 10:57 | 60.16387 | 12.75406 | 35206 ft | 466 kts | 97° |
| 2026-05-01 10:58 | 60.15579 | 12.88328 | 35213 ft | 467 kts | 98° |
| 2026-05-01 10:58 | 60.14737 | 13.01270 | 35210 ft | 467 kts | 98° |
| 2026-05-01 10:59 | 60.13879 | 13.14184 | 35199 ft | 467 kts | 98° |
| 2026-05-01 10:59 | 60.13021 | 13.27038 | 35203 ft | 468 kts | 98° |
| 2026-05-01 11:00 | 60.12141 | 13.39977 | 35204 ft | 468 kts | 98° |
| 2026-05-01 11:00 | 60.11248 | 13.52899 | 35213 ft | 468 kts | 98° |
| 2026-05-01 11:01 | 60.10349 | 13.65821 | 35209 ft | 468 kts | 98° |
| 2026-05-01 11:01 | 60.09426 | 13.78748 | 35206 ft | 468 kts | 98° |
| 2026-05-01 11:02 | 60.08494 | 13.91677 | 35203 ft | 469 kts | 98° |
| 2026-05-01 11:02 | 60.07552 | 14.04606 | 35195 ft | 469 kts | 99° |
| 2026-05-01 11:03 | 60.06590 | 14.17525 | 35173 ft | 469 kts | 98° |
| 2026-05-01 11:03 | 60.05625 | 14.30437 | 35178 ft | 469 kts | 98° |
| 2026-05-01 11:04 | 60.04653 | 14.43269 | 35179 ft | 469 kts | 99° |
| 2026-05-01 11:04 | 60.03652 | 14.56176 | 35176 ft | 469 kts | 99° |
| 2026-05-01 11:04 | 60.03148 | 14.62627 | 35007 ft | 474 kts | 99° |
| 2026-05-01 11:05 | 60.02637 | 14.69184 | 34449 ft | 475 kts | 99° |
| 2026-05-01 11:05 | 60.02127 | 14.75661 | 33767 ft | 469 kts | 99° |
| 2026-05-01 11:05 | 60.01613 | 14.82070 | 33081 ft | 464 kts | 99° |
| 2026-05-01 11:05 | 60.01109 | 14.88403 | 32433 ft | 459 kts | 99° |
| 2026-05-01 11:06 | 60.00611 | 14.94658 | 31788 ft | 454 kts | 99° |
| 2026-05-01 11:06 | 60.00111 | 15.00852 | 31158 ft | 450 kts | 99° |
| 2026-05-01 11:06 | 59.99609 | 15.06999 | 30561 ft | 447 kts | 99° |
| 2026-05-01 11:07 | 59.98606 | 15.19169 | 29259 ft | 441 kts | 99° |
| 2026-05-01 11:07 | 59.98104 | 15.25196 | 28603 ft | 439 kts | 99° |
| 2026-05-01 11:07 | 59.97603 | 15.31204 | 27958 ft | 437 kts | 99° |
| 2026-05-01 11:07 | 59.97103 | 15.37176 | 27328 ft | 435 kts | 99° |
| 2026-05-01 11:08 | 59.96598 | 15.43125 | 26699 ft | 433 kts | 99° |
| 2026-05-01 11:08 | 59.96097 | 15.49028 | 26131 ft | 430 kts | 99° |
| 2026-05-01 11:08 | 59.95101 | 15.60750 | 25013 ft | 427 kts | 99° |
| 2026-05-01 11:09 | 59.94602 | 15.66568 | 24469 ft | 424 kts | 99° |
| 2026-05-01 11:09 | 59.94102 | 15.72351 | 23935 ft | 422 kts | 99° |
| 2026-05-01 11:09 | 59.93605 | 15.78042 | 23339 ft | 420 kts | 100° |
| 2026-05-01 11:10 | 59.92600 | 15.89463 | 22117 ft | 417 kts | 100° |
| 2026-05-01 11:10 | 59.92098 | 15.95132 | 21534 ft | 415 kts | 100° |
| 2026-05-01 11:10 | 59.91595 | 16.00780 | 20973 ft | 413 kts | 100° |
| 2026-05-01 11:10 | 59.91089 | 16.06395 | 20420 ft | 411 kts | 99° |
| 2026-05-01 11:11 | 59.90582 | 16.11995 | 19880 ft | 408 kts | 99° |
| 2026-05-01 11:11 | 59.90104 | 16.17349 | 19367 ft | 407 kts | 99° |
| 2026-05-01 11:11 | 59.89609 | 16.22879 | 18847 ft | 405 kts | 99° |
| 2026-05-01 11:11 | 59.89109 | 16.28392 | 18306 ft | 403 kts | 99° |
| 2026-05-01 11:12 | 59.88608 | 16.33872 | 17731 ft | 402 kts | 99° |
| 2026-05-01 11:12 | 59.88103 | 16.39336 | 17154 ft | 400 kts | 100° |
| 2026-05-01 11:12 | 59.87599 | 16.44762 | 16593 ft | 398 kts | 100° |
| 2026-05-01 11:12 | 59.87094 | 16.50168 | 16038 ft | 396 kts | 100° |
| 2026-05-01 11:13 | 59.86595 | 16.55531 | 15506 ft | 393 kts | 100° |
| 2026-05-01 11:13 | 59.86096 | 16.60845 | 15002 ft | 390 kts | 100° |
| 2026-05-01 11:13 | 59.85598 | 16.66127 | 14493 ft | 387 kts | 100° |
| 2026-05-01 11:13 | 59.85105 | 16.71301 | 14000 ft | 383 kts | 99° |
| 2026-05-01 11:14 | 59.84612 | 16.76482 | 13456 ft | 379 kts | 99° |
| 2026-05-01 11:14 | 59.84128 | 16.81604 | 12915 ft | 375 kts | 99° |
| 2026-05-01 11:14 | 59.83644 | 16.86680 | 12377 ft | 371 kts | 100° |
| 2026-05-01 11:14 | 59.83163 | 16.91671 | 11848 ft | 368 kts | 100° |
| 2026-05-01 11:15 | 59.82681 | 16.96632 | 11372 ft | 363 kts | 100° |
| 2026-05-01 11:15 | 59.82409 | 17.01543 | 11084 ft | 350 kts | 86° |
| 2026-05-01 11:15 | 59.82663 | 17.06293 | 11084 ft | 341 kts | 79° |
| 2026-05-01 11:15 | 59.83033 | 17.10904 | 11084 ft | 334 kts | 78° |
| 2026-05-01 11:16 | 59.83393 | 17.15437 | 11081 ft | 329 kts | 79° |
| 2026-05-01 11:16 | 59.83705 | 17.19912 | 11080 ft | 325 kts | 81° |
| 2026-05-01 11:16 | 59.83936 | 17.24362 | 10985 ft | 325 kts | 87° |
| 2026-05-01 11:16 | 59.83471 | 17.28745 | 10605 ft | 326 kts | 116° |
| 2026-05-01 11:17 | 59.82343 | 17.32617 | 10270 ft | 323 kts | 124° |
| 2026-05-01 11:17 | 59.81122 | 17.36343 | 9925 ft | 321 kts | 125° |
| 2026-05-01 11:17 | 59.79919 | 17.40078 | 9508 ft | 320 kts | 123° |
| 2026-05-01 11:17 | 59.78794 | 17.43828 | 9111 ft | 319 kts | 121° |
| 2026-05-01 11:18 | 59.77715 | 17.47660 | 8707 ft | 318 kts | 120° |
| 2026-05-01 11:18 | 59.76654 | 17.51495 | 8299 ft | 316 kts | 120° |
| 2026-05-01 11:18 | 59.75585 | 17.55287 | 7889 ft | 314 kts | 120° |
| 2026-05-01 11:18 | 59.74516 | 17.59053 | 7506 ft | 312 kts | 119° |
| 2026-05-01 11:19 | 59.73814 | 17.63075 | 7084 ft | 309 kts | 95° |
| 2026-05-01 11:19 | 59.74000 | 17.67220 | 6793 ft | 299 kts | 68° |
| 2026-05-01 11:19 | 59.75007 | 17.70679 | 6598 ft | 284 kts | 41° |
| 2026-05-01 11:19 | 59.76578 | 17.72804 | 6420 ft | 268 kts | 17° |
| 2026-05-01 11:20 | 59.78305 | 17.74067 | 6243 ft | 262 kts | 13° |
| 2026-05-01 11:20 | 59.80024 | 17.75188 | 6045 ft | 259 kts | 12° |
| 2026-05-01 11:20 | 59.81729 | 17.76256 | 5853 ft | 256 kts | 12° |
| 2026-05-01 11:20 | 59.83436 | 17.77273 | 5661 ft | 256 kts | 11° |
| 2026-05-01 11:21 | 59.85142 | 17.78258 | 5487 ft | 255 kts | 11° |
| 2026-05-01 11:21 | 59.86836 | 17.79221 | 5297 ft | 251 kts | 11° |
| 2026-05-01 11:21 | 59.88396 | 17.80770 | 5072 ft | 256 kts | 38° |
| 2026-05-01 11:21 | 59.89388 | 17.83663 | 4873 ft | 261 kts | 67° |
| 2026-05-01 11:22 | 59.89606 | 17.87234 | 4663 ft | 261 kts | 94° |
| 2026-05-01 11:22 | 59.89347 | 17.90783 | 4502 ft | 258 kts | 99° |
| 2026-05-01 11:22 | 59.89009 | 17.94265 | 4319 ft | 254 kts | 101° |
| 2026-05-01 11:22 | 59.88393 | 17.97508 | 4145 ft | 250 kts | 129° |
| 2026-05-01 11:23 | 59.87056 | 17.99551 | 3976 ft | 241 kts | 165° |
| 2026-05-01 11:23 | 59.85441 | 18.00218 | 3794 ft | 236 kts | 175° |
| 2026-05-01 11:23 | 59.83819 | 18.00696 | 3564 ft | 235 kts | 177° |
| 2026-05-01 11:23 | 59.82196 | 18.01087 | 3394 ft | 234 kts | 178° |
| 2026-05-01 11:24 | 59.80576 | 18.01413 | 3149 ft | 233 kts | 178° |
| 2026-05-01 11:24 | 59.78986 | 18.01319 | 2935 ft | 225 kts | 194° |
| 2026-05-01 11:24 | 59.76006 | 17.99934 | 2426 ft | 215 kts | 197° |
| 2026-05-01 11:25 | 59.74546 | 17.99351 | 2042 ft | 213 kts | 193° |
| 2026-05-01 11:25 | 59.71933 | 17.98424 | 1616 ft | 164 kts | 195° |
| 2026-05-01 11:25 | 59.70893 | 17.98060 | 1390 ft | 142 kts | 196° |
| 2026-05-01 11:26 | 59.69957 | 17.97698 | 1153 ft | 134 kts | 196° |
| 2026-05-01 11:26 | 59.68183 | 17.97038 | 785 ft | 128 kts | 194° |
| 2026-05-01 11:26 | 59.67286 | 17.96749 | 664 ft | 133 kts | 195° |
| 2026-05-01 11:27 | 59.66376 | 17.96436 | 430 ft | 130 kts | 196° |
| 2026-05-01 11:27 | 59.65505 | 17.96112 | 269 ft | 126 kts | 195° |
| 2026-05-01 11:27 | 59.64653 | 17.95817 | 119 ft | 121 kts | 197° |
| 2026-05-01 11:27 | 59.63943 | 17.95544 | 111 ft | 79 kts | 190° |
| 2026-05-01 11:28 | 59.63570 | 17.95413 | 118 ft | 27 kts | 191° |
| 2026-05-01 11:28 | 59.63427 | 17.95306 | 118 ft | 22 kts | 211° |
| 2026-05-01 11:28 | 59.63308 | 17.95146 | 121 ft | 20 kts | 220° |
| 2026-05-01 11:29 | 59.63283 | 17.94907 | 120 ft | 11 kts | 355° |
| 2026-05-01 11:29 | 59.63373 | 17.94934 | 119 ft | 15 kts | 10° |
| 2026-05-01 11:29 | 59.63645 | 17.95032 | 111 ft | 24 kts | 11° |
| 2026-05-01 11:30 | 59.63822 | 17.95098 | 108 ft | 27 kts | 10° |
| 2026-05-01 11:30 | 59.64016 | 17.95168 | 107 ft | 29 kts | 10° |
| 2026-05-01 11:30 | 59.64225 | 17.95238 | 105 ft | 31 kts | 8° |
| 2026-05-01 11:30 | 59.64445 | 17.95323 | 104 ft | 33 kts | 11° |
| 2026-05-01 11:31 | 59.64675 | 17.95408 | 103 ft | 34 kts | 10° |
| 2026-05-01 11:31 | 59.64910 | 17.95488 | 107 ft | 34 kts | 9° |
| 2026-05-01 11:31 | 59.65093 | 17.95490 | 114 ft | 25 kts | 343° |
| 2026-05-01 11:31 | 59.65252 | 17.95405 | 120 ft | 23 kts | 345° |
| 2026-05-01 11:32 | 59.65400 | 17.95326 | 125 ft | 22 kts | 345° |
| 2026-05-01 11:32 | 59.65554 | 17.95246 | 126 ft | 24 kts | 345° |
| 2026-05-01 11:32 | 59.65693 | 17.95173 | 125 ft | 14 kts | 345° |
| 2026-05-01 11:32 | 59.65749 | 17.95018 | 124 ft | 17 kts | 261° |
| 2026-05-01 11:33 | 59.65718 | 17.94772 | 119 ft | 19 kts | 256° |
| 2026-05-01 11:33 | 59.65685 | 17.94510 | 122 ft | 20 kts | 256° |
| 2026-05-01 11:33 | 59.65650 | 17.94235 | 123 ft | 22 kts | 256° |
| 2026-05-01 11:33 | 59.65609 | 17.93917 | 114 ft | 27 kts | 256° |
| 2026-05-01 11:34 | 59.65563 | 17.93544 | 110 ft | 29 kts | 256° |
| 2026-05-01 11:34 | 59.65514 | 17.93155 | 108 ft | 29 kts | 256° |
| 2026-05-01 11:34 | 59.65461 | 17.92954 | 110 ft | 8 kts | 187° |
| 2026-05-01 11:34 | 59.65412 | 17.92937 | 110 ft | 8 kts | 230° |
| 2026-05-01 11:35 | 59.65391 | 17.92836 | 110 ft | 9 kts | 249° |
| 2026-05-01 11:35 | 59.65358 | 17.92732 | 110 ft | 8 kts | 193° |
| 2026-05-01 11:35 | 59.65299 | 17.92770 | 110 ft | 10 kts | 153° |
| 2026-05-01 11:35 | 59.65230 | 17.92843 | 110 ft | 12 kts | 152° |
| 2026-05-01 11:36 | 59.65187 | 17.92926 | 110 ft | 6 kts | 104° |
| 2026-05-01 11:36 | 59.65192 | 17.92977 | 110 ft | 6 kts | 72° |
| 2026-05-01 11:36 | 59.65198 | 17.93014 | 110 ft | 0 kts | 71° |